createdAt,value
2023-01-12T00:02:00.844Z,2.15
2023-01-12T00:04:31.031Z,1.90
2023-01-12T00:06:59.062Z,1.95
2023-01-12T00:09:27.503Z,1.88
2023-01-12T00:11:56.567Z,1.90
2023-01-12T00:14:24.320Z,1.95
2023-01-12T00:16:52.085Z,2.58
2023-01-12T00:19:21.340Z,1.80
2023-01-12T00:22:02.225Z,2.00
2023-01-12T00:24:31.276Z,2.95
2023-01-12T00:27:02.001Z,1.50
2023-01-12T00:29:30.049Z,1.90
2023-01-12T00:31:59.057Z,2.55
2023-01-12T00:34:29.543Z,2.17
2023-01-12T00:36:58.011Z,2.22
2023-01-12T00:39:25.727Z,1.67
2023-01-12T00:42:10.948Z,1.60
2023-01-12T00:44:57.613Z,2.42
2023-01-12T00:47:25.537Z,1.85
2023-01-12T00:49:53.726Z,2.92
2023-01-12T00:52:30.740Z,1.83
2023-01-12T00:54:59.467Z,1.90
2023-01-12T00:57:28.024Z,2.55
2023-01-12T00:59:59.352Z,2.92
2023-01-12T01:02:27.807Z,2.58
2023-01-12T01:04:55.690Z,2.35
2023-01-12T01:07:23.663Z,2.38
2023-01-12T01:09:51.676Z,1.98
2023-01-12T01:12:19.377Z,2.28
2023-01-12T01:14:48.000Z,3.05
2023-01-12T01:17:17.112Z,2.40
2023-01-12T01:19:44.842Z,2.58
2023-01-12T01:22:13.495Z,2.65
2023-01-12T01:24:41.536Z,2.00
2023-01-12T01:27:09.283Z,2.15
2023-01-12T01:29:37.035Z,2.50
2023-01-12T01:32:04.895Z,2.45
2023-01-12T01:34:33.992Z,2.70
2023-01-12T01:37:01.654Z,2.35
2023-01-12T01:39:29.366Z,2.90
2023-01-12T01:41:57.096Z,3.90
2023-01-12T01:44:51.781Z,2.58
2023-01-12T01:47:28.104Z,3.22
2023-01-12T01:50:00.683Z,2.17
2023-01-12T01:52:34.601Z,3.60
2023-01-12T01:55:06.405Z,2.70
2023-01-12T01:57:40.970Z,2.60
2023-01-12T02:00:12.160Z,2.80
2023-01-12T02:02:41.164Z,2.95
2023-01-12T02:05:12.425Z,3.33
2023-01-12T02:07:41.705Z,2.63
2023-01-12T02:10:10.724Z,2.22
2023-01-12T02:12:56.030Z,2.55
2023-01-12T02:15:45.377Z,2.83
2023-01-12T02:18:20.267Z,3.40
2023-01-12T02:20:57.892Z,3.08
2023-01-12T02:23:53.978Z,2.50
2023-01-12T02:26:59.553Z,2.47
2023-01-12T02:29:52.940Z,2.35
2023-01-12T02:32:30.368Z,3.08
2023-01-12T02:35:08.726Z,2.35
2023-01-12T02:37:43.174Z,2.80
2023-01-12T02:40:17.631Z,2.50
2023-01-12T02:42:54.572Z,3.08
2023-01-12T02:45:33.652Z,2.58
2023-01-12T02:48:10.328Z,2.50
2023-01-12T02:50:45.010Z,2.88
2023-01-12T02:53:19.049Z,3.85
2023-01-12T02:55:47.870Z,3.80
2023-01-12T02:58:19.675Z,3.60
2023-01-12T03:00:50.379Z,3.00
2023-01-12T03:03:20.425Z,3.20
2023-01-12T03:05:48.562Z,2.72
2023-01-12T03:08:21.225Z,2.38
2023-01-12T03:11:00.699Z,3.70
2023-01-12T03:13:30.965Z,2.80
2023-01-12T03:16:00.534Z,2.45
2023-01-12T03:18:34.121Z,2.08
2023-01-12T03:21:06.415Z,2.35
2023-01-12T03:23:39.847Z,2.47
2023-01-12T03:26:08.991Z,2.92
2023-01-12T03:28:43.147Z,2.72
2023-01-12T03:31:13.277Z,2.45
2023-01-12T03:33:44.161Z,2.00
2023-01-12T03:36:20.355Z,2.53
2023-01-12T03:38:59.497Z,2.55
2023-01-12T03:41:36.305Z,2.75
2023-01-12T03:46:41.013Z,2.25
2023-01-12T03:49:16.466Z,2.72
2023-01-12T03:51:48.529Z,2.75
2023-01-12T03:54:18.095Z,3.03
2023-01-12T03:56:48.012Z,2.33
2023-01-12T03:59:16.931Z,2.53
2023-01-12T04:01:44.878Z,2.40
2023-01-12T04:04:14.049Z,1.92
2023-01-12T04:06:42.106Z,1.92
2023-01-12T04:09:09.895Z,2.50
2023-01-12T04:11:51.503Z,2.78
2023-01-12T04:14:19.246Z,2.03
2023-01-12T04:16:47.172Z,2.33
2023-01-12T04:19:16.326Z,2.30
2023-01-12T04:22:01.456Z,1.95
2023-01-12T04:24:29.175Z,2.20
2023-01-12T04:26:56.941Z,1.60
2023-01-12T04:29:24.670Z,2.05
2023-01-12T04:31:52.742Z,2.80
2023-01-12T04:34:21.837Z,2.88
2023-01-12T04:36:49.548Z,1.80
2023-01-12T04:39:17.241Z,2.20
2023-01-12T04:41:44.950Z,3.70
2023-01-12T04:44:12.705Z,2.20
2023-01-12T04:46:40.752Z,2.35
2023-01-12T04:49:08.681Z,3.10
2023-01-12T04:51:37.774Z,2.08
2023-01-12T04:54:05.797Z,2.33
2023-01-12T04:56:33.657Z,2.28
2023-01-12T04:59:01.388Z,2.05
2023-01-12T05:01:30.597Z,2.45
2023-01-12T05:04:00.826Z,2.50
2023-01-12T05:06:29.180Z,2.53
2023-01-12T05:09:15.625Z,2.42
2023-01-12T05:11:43.355Z,2.40
2023-01-12T05:14:11.052Z,3.20
2023-01-12T05:16:38.869Z,2.10
2023-01-12T05:19:06.619Z,2.63
2023-01-12T05:21:34.371Z,2.55
2023-01-12T05:24:03.446Z,3.15
2023-01-12T05:26:31.149Z,2.40
2023-01-12T05:28:58.911Z,2.20
2023-01-12T05:31:26.629Z,1.85
2023-01-12T05:33:54.331Z,2.47
2023-01-12T05:36:22.104Z,2.50
2023-01-12T05:38:49.758Z,2.28
2023-01-12T05:41:18.807Z,2.58
2023-01-12T05:43:51.232Z,2.55
2023-01-12T05:46:21.291Z,2.05
2023-01-12T05:48:49.501Z,2.13
2023-01-12T05:51:18.094Z,3.13
2023-01-12T05:53:46.021Z,2.28
2023-01-12T05:56:20.119Z,4.05
2023-01-12T05:58:51.332Z,2.67
2023-01-12T06:01:19.834Z,3.72
2023-01-12T06:03:49.979Z,1.77
2023-01-12T06:06:18.861Z,1.73
2023-01-12T06:08:46.688Z,1.67
2023-01-12T06:11:28.971Z,1.90
2023-01-12T06:13:58.068Z,2.13
2023-01-12T06:16:26.289Z,2.13
2023-01-12T06:18:54.146Z,2.20
2023-01-12T06:21:22.023Z,1.50
2023-01-12T06:23:49.768Z,1.52
2023-01-12T06:26:17.580Z,2.38
2023-01-12T06:28:45.325Z,1.70
2023-01-12T06:31:15.250Z,1.85
2023-01-12T06:33:43.328Z,1.65
2023-01-12T06:36:11.951Z,1.80
2023-01-12T06:38:40.197Z,1.70
2023-01-12T06:41:29.689Z,1.70
2023-01-12T06:43:57.685Z,1.52
2023-01-12T06:46:27.285Z,1.50
2023-01-12T06:48:56.563Z,1.02
2023-01-12T06:51:24.450Z,1.33
2023-01-12T06:53:52.437Z,1.20
2023-01-12T06:56:20.209Z,1.40
2023-01-12T06:58:48.180Z,1.50
2023-01-12T07:01:17.047Z,1.45
2023-01-12T07:03:46.304Z,1.00
2023-01-12T07:06:14.424Z,1.30
2023-01-12T07:08:42.916Z,1.30
2023-01-12T07:11:12.588Z,1.23
2023-01-12T07:13:40.648Z,1.00
2023-01-12T07:16:08.900Z,1.85
2023-01-12T07:18:36.632Z,1.45
2023-01-12T07:21:07.859Z,1.33
2023-01-12T07:23:37.750Z,1.65
2023-01-12T07:26:05.833Z,0.90
2023-01-12T07:28:34.417Z,1.20
2023-01-12T07:31:03.024Z,1.00
2023-01-12T07:33:31.143Z,1.40
2023-01-12T07:36:00.203Z,1.75
2023-01-12T07:38:30.953Z,0.80
2023-01-12T07:40:59.929Z,1.25
2023-01-12T07:43:27.979Z,1.27
2023-01-12T07:45:57.557Z,1.00
2023-01-12T07:48:26.674Z,0.98
2023-01-12T07:50:54.533Z,0.70
2023-01-12T07:53:22.266Z,1.25
2023-01-12T07:55:51.341Z,0.98
2023-01-12T07:58:19.161Z,1.17
2023-01-12T08:00:46.919Z,1.20
2023-01-12T08:03:15.009Z,0.90
2023-01-12T08:05:42.996Z,0.77
2023-01-12T08:08:10.818Z,1.05
2023-01-12T08:10:38.633Z,1.13
2023-01-12T08:13:07.707Z,1.25
2023-01-12T08:15:43.021Z,0.98
2023-01-12T08:18:18.927Z,1.30
2023-01-12T08:20:46.957Z,0.93
2023-01-12T08:23:17.705Z,1.30
2023-01-12T08:25:49.153Z,0.75
2023-01-12T08:28:23.338Z,1.27
2023-01-12T08:30:52.298Z,1.17
2023-01-12T08:33:20.912Z,1.20
2023-01-12T08:35:49.486Z,0.80
2023-01-12T08:38:19.190Z,0.70
2023-01-12T08:41:05.214Z,0.90
2023-01-12T08:43:51.704Z,0.82
2023-01-12T08:46:19.479Z,0.95
2023-01-12T08:48:47.227Z,1.10
2023-01-12T08:51:14.943Z,1.17
2023-01-12T08:53:42.631Z,0.73
2023-01-12T08:56:10.363Z,0.82
2023-01-12T08:58:39.488Z,0.70
2023-01-12T09:01:09.073Z,1.00
2023-01-12T09:03:36.975Z,0.90
2023-01-12T09:06:15.576Z,0.80
2023-01-12T09:08:43.479Z,0.70
2023-01-12T09:11:12.977Z,0.60
2023-01-12T09:13:42.661Z,0.82
2023-01-12T09:16:13.309Z,1.00
2023-01-12T09:18:41.840Z,0.80
2023-01-12T09:21:11.557Z,0.80
2023-01-12T09:23:40.225Z,0.80
2023-01-12T09:26:09.462Z,0.55
2023-01-12T09:28:37.987Z,1.45
2023-01-12T09:31:09.649Z,0.73
2023-01-12T09:33:39.596Z,0.60
2023-01-12T09:36:10.365Z,0.80
2023-01-12T09:38:39.638Z,0.90
2023-01-12T09:41:12.384Z,0.80
2023-01-12T09:43:58.738Z,0.75
2023-01-12T09:46:50.620Z,0.63
2023-01-12T09:49:19.635Z,0.50
2023-01-12T09:51:55.392Z,0.98
2023-01-12T09:54:23.427Z,1.17
2023-01-12T09:57:09.204Z,0.85
2023-01-12T09:59:47.021Z,1.23
2023-01-12T10:02:16.602Z,0.90
2023-01-12T10:04:45.342Z,0.82
2023-01-12T10:07:16.155Z,1.58
2023-01-12T10:09:44.216Z,1.20
2023-01-12T10:12:20.452Z,0.70
2023-01-12T10:15:04.279Z,0.52
2023-01-12T10:17:50.623Z,0.88
2023-01-12T10:20:28.145Z,1.00
2023-01-12T10:23:02.669Z,0.90
2023-01-12T10:25:38.484Z,0.68
2023-01-12T10:28:14.812Z,0.90
2023-01-12T10:30:43.277Z,0.55
2023-01-12T10:33:16.058Z,0.75
2023-01-12T10:35:58.927Z,0.80
2023-01-12T10:38:29.542Z,0.52
2023-01-12T10:41:06.850Z,0.50
2023-01-12T10:43:34.988Z,0.50
2023-01-12T10:46:23.517Z,0.95
2023-01-12T10:48:56.308Z,0.80
2023-01-12T10:51:29.496Z,0.35
2023-01-12T10:54:01.591Z,0.50
2023-01-12T10:56:35.255Z,0.63
2023-01-12T10:59:04.668Z,0.63
2023-01-12T11:01:47.584Z,0.50
2023-01-12T11:04:20.873Z,0.40
2023-01-12T11:06:58.415Z,0.82
2023-01-12T11:09:27.734Z,0.55
2023-01-12T11:11:57.419Z,0.50
2023-01-12T11:14:35.941Z,0.70
2023-01-12T11:17:23.842Z,0.57
2023-01-12T11:19:53.810Z,0.65
2023-01-12T11:22:27.409Z,0.63
2023-01-12T11:24:59.816Z,1.02
2023-01-12T11:27:34.927Z,0.70
2023-01-12T11:30:12.907Z,0.60
2023-01-12T11:32:45.055Z,0.40
2023-01-12T11:35:28.002Z,0.70
2023-01-12T11:38:00.994Z,0.57
2023-01-12T11:40:32.725Z,0.60
2023-01-12T11:43:29.211Z,0.88
2023-01-12T11:46:05.066Z,0.70
2023-01-12T11:48:43.549Z,0.40
2023-01-12T11:51:14.275Z,0.70
2023-01-12T11:53:42.657Z,0.55
2023-01-12T11:56:24.640Z,1.30
2023-01-12T11:59:02.696Z,0.40
2023-01-12T12:01:37.833Z,0.40
2023-01-12T12:04:14.084Z,0.60
2023-01-12T12:06:57.236Z,0.63
2023-01-12T12:10:01.326Z,0.47
2023-01-12T12:12:40.764Z,0.50
2023-01-12T12:15:23.800Z,0.63
2023-01-12T12:18:04.557Z,0.60
2023-01-12T12:20:39.886Z,0.50
2023-01-12T12:23:21.983Z,0.77
2023-01-12T12:25:58.987Z,0.73
2023-01-12T12:29:02.511Z,1.35
2023-01-12T12:31:58.185Z,0.57
2023-01-12T12:34:47.015Z,0.60
2023-01-12T12:37:22.197Z,0.52
2023-01-12T12:39:57.463Z,0.65
2023-01-12T12:43:00.401Z,0.95
2023-01-12T12:45:37.243Z,0.55
2023-01-12T12:48:12.184Z,0.52
2023-01-12T12:50:45.127Z,0.68
2023-01-12T12:53:17.761Z,0.70
2023-01-12T12:55:47.750Z,0.60
2023-01-12T12:58:31.510Z,0.70
2023-01-12T13:01:45.649Z,0.65
2023-01-12T13:04:14.954Z,0.70
2023-01-12T13:06:49.225Z,0.60
2023-01-12T13:09:47.338Z,0.65
2023-01-12T13:12:36.470Z,0.60
2023-01-12T13:15:19.979Z,0.57
2023-01-12T13:17:49.871Z,0.65
2023-01-12T13:20:52.458Z,0.60
2023-01-12T13:23:56.488Z,0.50
2023-01-12T13:26:39.932Z,0.55
2023-01-12T13:29:41.077Z,0.30
2023-01-12T13:32:41.563Z,0.50
2023-01-12T13:35:27.577Z,0.40
2023-01-12T13:38:04.064Z,0.40
2023-01-12T13:40:33.482Z,0.40
2023-01-12T13:43:15.067Z,0.57
2023-01-12T13:45:53.316Z,0.63
2023-01-12T13:48:22.270Z,0.80
2023-01-12T13:50:52.744Z,0.52
2023-01-12T13:53:25.364Z,1.30
2023-01-12T13:55:58.664Z,0.50
2023-01-12T13:58:27.134Z,0.40
2023-01-12T14:00:59.019Z,0.60
2023-01-12T14:03:54.879Z,0.68
2023-01-12T14:06:33.476Z,0.60
2023-01-12T14:09:14.327Z,0.65
2023-01-12T14:12:32.693Z,0.43
2023-01-12T14:15:37.132Z,0.55
2023-01-12T14:18:10.235Z,0.65
2023-01-12T14:20:46.987Z,0.40
2023-01-12T14:25:44.510Z,0.52
2023-01-12T14:28:18.468Z,0.22
2023-01-12T14:30:49.821Z,0.80
2023-01-12T14:33:21.467Z,0.40
2023-01-12T14:35:52.208Z,0.40
2023-01-12T14:38:20.774Z,0.60
2023-01-12T14:41:01.190Z,0.70
2023-01-12T14:43:50.268Z,1.25
2023-01-12T14:46:27.679Z,0.88
2023-01-12T14:48:59.529Z,0.50
2023-01-12T14:51:30.417Z,0.50
2023-01-12T14:54:02.129Z,0.70
2023-01-12T14:56:36.137Z,0.63
2023-01-12T14:59:10.184Z,0.70
2023-01-12T15:01:39.892Z,0.70
2023-01-12T15:04:17.694Z,0.63
2023-01-12T15:06:46.518Z,1.35
2023-01-12T15:09:27.239Z,0.50
2023-01-12T15:11:55.155Z,0.60
2023-01-12T15:14:26.007Z,1.33
2023-01-12T15:17:11.599Z,0.90
2023-01-12T15:19:58.383Z,0.50
2023-01-12T15:22:45.907Z,1.00
2023-01-12T15:25:32.850Z,0.98
2023-01-12T15:28:00.605Z,0.60
2023-01-12T15:30:28.834Z,0.65
2023-01-12T15:32:56.741Z,0.50
2023-01-12T15:35:27.589Z,0.85
2023-01-12T15:37:57.240Z,0.70
2023-01-12T15:40:26.310Z,0.80
2023-01-12T15:42:54.209Z,0.80
2023-01-12T15:45:32.978Z,1.17
2023-01-12T15:48:00.808Z,0.70
2023-01-12T15:50:30.317Z,0.85
2023-01-12T15:53:00.084Z,0.70
2023-01-12T15:55:28.065Z,0.70
2023-01-12T15:57:55.795Z,0.63
2023-01-12T16:00:25.119Z,0.55
2023-01-12T16:02:53.594Z,0.80
2023-01-12T16:05:23.195Z,0.60
2023-01-12T16:07:52.279Z,0.90
2023-01-12T16:10:20.970Z,0.90
2023-01-12T16:12:49.200Z,0.80
2023-01-12T16:15:19.105Z,0.75
2023-01-12T16:17:47.224Z,0.80
2023-01-12T16:20:16.842Z,0.50
2023-01-12T16:22:45.538Z,1.00
2023-01-12T16:25:15.397Z,0.80
2023-01-12T16:27:43.268Z,0.90
2023-01-12T16:30:15.835Z,1.08
2023-01-12T16:32:46.489Z,0.68
2023-01-12T16:35:16.071Z,1.13
2023-01-12T16:37:44.555Z,0.98
2023-01-12T16:40:14.920Z,0.90
2023-01-12T16:42:42.664Z,1.17
2023-01-12T16:45:11.316Z,0.80
2023-01-12T16:47:39.119Z,1.00
2023-01-12T16:50:07.637Z,0.90
2023-01-12T16:52:35.374Z,0.73
2023-01-12T16:55:04.842Z,1.00
2023-01-12T16:57:34.613Z,0.95
2023-01-12T17:00:02.331Z,0.63
2023-01-12T17:02:31.448Z,1.40
2023-01-12T17:04:59.745Z,0.60
2023-01-12T17:07:27.742Z,0.88
2023-01-12T17:09:55.551Z,1.42
2023-01-12T17:12:23.400Z,0.80
2023-01-12T17:14:52.972Z,0.82
2023-01-12T17:17:20.963Z,1.00
2023-01-12T17:19:48.871Z,0.80
2023-01-12T17:22:16.800Z,0.98
2023-01-12T17:24:44.847Z,0.80
2023-01-12T17:27:12.888Z,0.60
2023-01-12T17:29:40.869Z,0.77
2023-01-12T17:32:10.321Z,0.70
2023-01-12T17:34:39.971Z,0.93
2023-01-12T17:37:08.817Z,0.70
2023-01-12T17:39:39.709Z,0.98
2023-01-12T17:42:25.754Z,1.30
2023-01-12T17:44:53.499Z,0.90
2023-01-12T17:47:22.685Z,1.02
2023-01-12T17:49:50.448Z,0.90
2023-01-12T17:52:18.425Z,0.80
2023-01-12T17:54:46.277Z,1.23
2023-01-12T17:57:14.176Z,0.90
2023-01-12T17:59:42.000Z,0.90
2023-01-12T18:02:11.710Z,1.00
2023-01-12T18:04:40.967Z,1.00
2023-01-12T18:07:08.654Z,0.88
2023-01-12T18:09:36.841Z,1.10
2023-01-12T18:12:05.188Z,1.00
2023-01-12T18:14:33.262Z,1.15
2023-01-12T18:17:00.972Z,1.10
2023-01-12T18:19:29.943Z,1.00
2023-01-12T18:21:59.039Z,1.15
2023-01-12T18:24:26.796Z,1.42
2023-01-12T18:26:54.470Z,1.27
2023-01-12T18:29:22.552Z,1.00
2023-01-12T18:31:50.221Z,1.00
2023-01-12T18:34:18.541Z,1.00
2023-01-12T18:36:46.763Z,1.48
2023-01-12T18:39:17.976Z,1.17
2023-01-12T18:42:03.438Z,1.15
2023-01-12T18:44:32.256Z,1.05
2023-01-12T18:47:18.845Z,1.00
2023-01-12T18:49:47.621Z,1.35
2023-01-12T18:52:34.009Z,1.17
2023-01-12T18:55:03.222Z,1.03
2023-01-12T18:57:32.500Z,1.00
2023-01-12T19:00:11.895Z,1.10
2023-01-12T19:02:39.993Z,1.63
2023-01-12T19:05:20.520Z,1.90
2023-01-12T19:08:04.415Z,1.58
2023-01-12T19:10:34.190Z,1.73
2023-01-12T19:13:19.598Z,1.50
2023-01-12T19:16:05.080Z,1.40
2023-01-12T19:18:34.993Z,1.23
2023-01-12T19:21:23.470Z,1.27
2023-01-12T19:24:08.956Z,0.93
2023-01-12T19:26:55.381Z,1.08
2023-01-12T19:29:23.101Z,1.30
2023-01-12T19:31:50.887Z,1.05
2023-01-12T19:34:18.805Z,1.10
2023-01-12T19:36:46.563Z,1.35
2023-01-12T19:39:14.415Z,1.27
2023-01-12T19:42:00.825Z,1.00
2023-01-12T19:44:28.561Z,1.60
2023-01-12T19:46:56.282Z,1.20
2023-01-12T19:49:23.998Z,1.10
2023-01-12T19:51:51.702Z,1.38
2023-01-12T19:54:19.502Z,0.95
2023-01-12T19:56:48.817Z,1.60
2023-01-12T19:59:16.853Z,1.58
2023-01-12T20:01:44.681Z,1.75
2023-01-12T20:04:12.511Z,1.00
2023-01-12T20:06:40.290Z,1.20
2023-01-12T20:09:08.351Z,1.08
2023-01-12T20:11:36.165Z,0.80
2023-01-12T20:14:05.346Z,0.90
2023-01-12T20:16:33.665Z,1.10
2023-01-12T20:19:03.918Z,0.88
2023-01-12T20:21:31.701Z,1.00
2023-01-12T20:23:59.458Z,1.00
2023-01-12T20:26:27.209Z,0.70
2023-01-12T20:28:54.892Z,1.15
2023-01-12T20:31:23.996Z,1.08
2023-01-12T20:33:51.836Z,1.17
2023-01-12T20:36:19.697Z,1.50
2023-01-12T20:38:47.742Z,0.93
2023-01-12T20:41:15.483Z,1.95
2023-01-12T20:43:43.205Z,1.13
2023-01-12T20:46:12.717Z,1.23
2023-01-12T20:48:42.851Z,1.23
2023-01-12T20:51:12.344Z,1.30
2023-01-12T20:53:40.376Z,0.90
2023-01-12T20:56:08.995Z,0.88
2023-01-12T20:58:36.894Z,1.10
2023-01-12T21:01:10.254Z,1.00
2023-01-12T21:03:38.117Z,1.02
2023-01-12T21:06:11.115Z,0.98
2023-01-12T21:08:39.445Z,1.45
2023-01-12T21:11:07.283Z,1.08
2023-01-12T21:13:35.493Z,1.45
2023-01-12T21:16:04.893Z,1.02
2023-01-12T21:18:32.745Z,1.10
2023-01-12T21:21:00.438Z,0.98
2023-01-12T21:23:30.614Z,1.00
2023-01-12T21:25:59.179Z,1.23
2023-01-12T21:28:30.031Z,1.27
2023-01-12T21:31:01.243Z,1.10
2023-01-12T21:33:29.177Z,1.00
2023-01-12T21:35:57.080Z,0.80
2023-01-12T21:38:25.193Z,0.88
2023-01-12T21:40:54.666Z,1.17
2023-01-12T21:43:22.864Z,1.20
2023-01-12T21:45:53.034Z,1.05
2023-01-12T21:48:22.556Z,1.05
2023-01-12T21:50:50.597Z,1.05
2023-01-12T21:53:21.130Z,1.05
2023-01-12T21:55:57.734Z,1.27
2023-01-12T21:58:26.063Z,0.90
2023-01-12T22:00:54.497Z,1.00
2023-01-12T22:03:24.689Z,1.20
2023-01-12T22:05:52.483Z,1.17
2023-01-12T22:08:20.676Z,1.10
2023-01-12T22:10:48.824Z,1.48
2023-01-12T22:13:18.704Z,1.58
2023-01-12T22:15:50.849Z,1.17
2023-01-12T22:18:18.762Z,1.20
2023-01-12T22:20:46.455Z,1.85
2023-01-12T22:23:14.213Z,1.17
2023-01-12T22:25:41.923Z,1.42
2023-01-12T22:28:09.712Z,1.05
2023-01-12T22:30:38.741Z,1.40
2023-01-12T22:33:06.464Z,1.17
2023-01-12T22:35:34.721Z,1.05
2023-01-12T22:38:02.719Z,1.10
2023-01-12T22:40:30.511Z,1.20
2023-01-12T22:43:15.909Z,1.10
2023-01-12T22:45:45.006Z,1.05
2023-01-12T22:48:12.760Z,0.98
2023-01-12T22:50:40.466Z,1.73
2023-01-12T22:53:08.246Z,1.00
2023-01-12T22:55:40.204Z,1.17
2023-01-12T22:58:08.166Z,1.20
2023-01-12T23:00:38.676Z,1.10
2023-01-12T23:03:10.262Z,1.15
2023-01-12T23:05:45.756Z,0.88
2023-01-12T23:08:13.989Z,1.05
2023-01-12T23:10:42.358Z,1.77
2023-01-12T23:13:16.987Z,1.25
2023-01-12T23:15:48.708Z,0.90
2023-01-12T23:18:19.368Z,1.00
2023-01-12T23:20:47.570Z,1.33
2023-01-12T23:23:17.676Z,1.35
2023-01-12T23:25:46.655Z,1.30
2023-01-12T23:28:15.193Z,2.65
2023-01-12T23:30:43.353Z,1.55
2023-01-12T23:33:12.663Z,2.25
2023-01-12T23:35:42.703Z,1.80
2023-01-12T23:38:15.474Z,1.55
2023-01-12T23:40:43.224Z,1.63
2023-01-12T23:43:10.902Z,1.60
2023-01-12T23:45:38.632Z,1.20
2023-01-12T23:48:07.803Z,1.98
2023-01-12T23:50:35.608Z,1.50
2023-01-12T23:53:04.935Z,3.20
2023-01-12T23:55:32.636Z,1.88
2023-01-12T23:58:00.297Z,2.08
